Time;durP1;ratioP1;P1;durP2;ratioP2;P2;SDS_P1;SDS_P2;PMS_P1;PMS_P2;Temp;Humidity;BMP_temperature;BMP_pressure;BME280_temperature;BME280_humidity;BME280_pressure;Samples;Min_cycle;Max_cycle;Signal;HPM_P1;HPM_P2
2021/10/26 00:01:31;;;;;;;5.13;3.20;;;;;;;16.71;50.33;101473.75;5057528;28;20118;-65
2021/10/26 00:03:57;;;;;;;5.40;2.95;;;;;;;16.70;50.16;101473.88;5072296;28;20048;-65
2021/10/26 00:06:24;;;;;;;5.47;2.90;;;;;;;16.70;50.03;101473.88;5036068;28;20064;-65
2021/10/26 00:08:51;;;;;;;4.28;2.80;;;;;;;16.69;49.83;101473.00;5045331;28;20079;-65
2021/10/26 00:11:18;;;;;;;5.28;3.15;;;;;;;16.69;50.13;101472.13;5065250;28;20047;-65
2021/10/26 00:13:44;;;;;;;5.75;3.25;;;;;;;16.68;50.10;101467.63;5060689;28;20122;-65
2021/10/26 00:16:11;;;;;;;5.50;3.25;;;;;;;16.67;49.77;101475.00;5065864;28;20488;-65
2021/10/26 00:18:38;;;;;;;4.78;3.38;;;;;;;16.67;49.92;101472.25;5061695;28;20180;-65
2021/10/26 00:21:05;;;;;;;4.85;3.33;;;;;;;16.68;50.15;101470.38;5062401;28;20107;-66
2021/10/26 00:23:31;;;;;;;5.07;3.45;;;;;;;16.66;50.27;101473.25;5068087;28;20056;-65
2021/10/26 00:25:58;;;;;;;5.10;3.28;;;;;;;16.66;50.16;101472.38;5067448;28;20049;-65
2021/10/26 00:28:25;;;;;;;5.70;3.30;;;;;;;16.65;49.90;101471.50;5063902;28;20060;-66
2021/10/26 00:30:52;;;;;;;5.95;3.40;;;;;;;16.65;49.97;101473.34;5067099;28;20106;-66
2021/10/26 00:33:19;;;;;;;5.80;3.63;;;;;;;16.67;49.97;101475.00;5072219;28;20142;-66
2021/10/26 00:35:46;;;;;;;6.03;3.40;;;;;;;16.67;50.06;101471.38;5059007;28;20092;-65
2021/10/26 00:38:13;;;;;;;5.38;3.80;;;;;;;16.66;50.15;101478.72;5066971;28;20048;-65
2021/10/26 00:40:43;;;;;;;6.20;3.65;;;;;;;16.68;50.00;101476.72;5039696;28;20040;-66
2021/10/26 00:43:10;;;;;;;6.03;3.55;;;;;;;16.66;50.02;101477.84;5057342;28;20102;-66
2021/10/26 00:45:36;;;;;;;6.85;3.70;;;;;;;16.66;50.46;101470.50;5061656;28;20048;-65
2021/10/26 00:48:04;;;;;;;6.53;3.70;;;;;;;16.66;50.16;101472.38;5054379;28;20044;-65
2021/10/26 00:50:31;;;;;;;5.22;3.38;;;;;;;16.66;50.21;101475.09;5065930;28;20450;-65
2021/10/26 00:53:04;;;;;;;5.43;3.72;;;;;;;16.69;50.80;101472.13;5058705;28;20049;-67
2021/10/26 00:55:31;;;;;;;4.82;3.05;;;;;;;16.65;50.30;101466.00;5057367;28;20499;-65
2021/10/26 00:57:58;;;;;;;4.45;3.20;;;;;;;16.66;50.18;101475.09;5067518;28;20106;-66
2021/10/26 01:00:24;;;;;;;5.15;3.25;;;;;;;16.66;50.30;101472.38;5052490;28;20128;-66
2021/10/26 01:02:51;;;;;;;5.40;3.60;;;;;;;16.65;50.18;101467.88;5075662;28;20087;-65
2021/10/26 01:05:18;;;;;;;6.25;3.60;;;;;;;16.65;50.48;101470.63;5040126;28;20049;-65
2021/10/26 01:07:45;;;;;;;6.13;3.80;;;;;;;16.66;50.31;101488.81;5060127;28;20551;-65
2021/10/26 01:10:11;;;;;;;4.97;3.30;;;;;;;16.66;50.21;101480.59;5026891;28;20075;-65
2021/10/26 01:12:38;;;;;;;5.60;3.80;;;;;;;16.65;50.26;101474.22;5046065;28;20092;-65
2021/10/26 01:15:06;;;;;;;4.60;3.38;;;;;;;16.66;50.29;101475.97;5070460;28;20495;-65
2021/10/26 01:17:32;;;;;;;6.40;3.35;;;;;;;16.65;49.96;101476.09;5064774;28;20048;-65
2021/10/26 01:20:00;;;;;;;5.60;3.65;;;;;;;16.67;50.01;101485.09;5065967;28;20568;-65
2021/10/26 01:22:29;;;;;;;5.47;3.47;;;;;;;16.66;49.91;101472.38;5073090;28;20060;-65
2021/10/26 01:24:58;;;;;;;6.00;3.70;;;;;;;16.66;50.37;101475.97;5046063;28;20098;-66
2021/10/26 01:27:25;;;;;;;5.82;4.07;;;;;;;16.66;50.43;101475.09;5057885;28;20049;-65
2021/10/26 01:29:52;;;;;;;5.70;3.60;;;;;;;16.66;50.31;101469.63;5057686;28;20122;-65
2021/10/26 01:32:20;;;;;;;5.40;3.80;;;;;;;16.65;50.08;101471.50;5070930;28;20040;-65
2021/10/26 01:34:47;;;;;;;5.55;3.85;;;;;;;16.65;50.05;101471.50;5068164;28;20052;-65
2021/10/26 01:37:14;;;;;;;6.93;4.03;;;;;;;16.66;50.02;101477.84;5064836;28;20506;-65
2021/10/26 01:39:42;;;;;;;6.43;3.88;;;;;;;16.68;50.40;101484.09;5065889;28;20098;-65
2021/10/26 01:42:09;;;;;;;5.45;3.55;;;;;;;16.66;50.29;101481.47;5070208;28;20048;-65
2021/10/26 01:44:36;;;;;;;5.00;3.20;;;;;;;16.67;50.24;101483.22;5081289;28;20291;-65
2021/10/26 01:47:03;;;;;;;5.05;3.20;;;;;;;16.67;50.41;101479.59;5036161;28;20049;-66
2021/10/26 01:49:30;;;;;;;4.70;3.03;;;;;;;16.67;50.57;101482.34;5045342;28;20496;-65
2021/10/26 01:51:57;;;;;;;5.30;3.17;;;;;;;16.66;50.35;101484.22;5064723;28;20048;-65
2021/10/26 01:54:24;;;;;;;5.00;3.03;;;;;;;16.67;50.30;101485.09;5067539;28;20609;-66
2021/10/26 01:56:51;;;;;;;6.13;3.33;;;;;;;16.68;50.03;101481.34;5075878;28;20114;-65
2021/10/26 01:59:17;;;;;;;5.32;3.20;;;;;;;16.67;50.45;101482.34;5059606;28;20122;-65
2021/10/26 02:01:44;;;;;;;5.00;3.25;;;;;;;16.67;50.58;101475.00;5069330;28;20044;-66
2021/10/26 02:04:11;;;;;;;4.60;3.17;;;;;;;16.68;50.50;101481.34;5075074;28;20128;-66
2021/10/26 02:06:37;;;;;;;4.22;2.97;;;;;;;16.68;50.15;101484.97;5057205;28;20075;-65
2021/10/26 02:09:04;;;;;;;5.22;3.15;;;;;;;16.69;50.39;101485.84;5059572;28;20052;-65
2021/10/26 02:11:31;;;;;;;4.30;2.75;;;;;;;16.69;50.49;101485.84;5059711;28;20052;-65
2021/10/26 02:13:57;;;;;;;4.38;2.90;;;;;;;16.69;50.57;101491.31;5064485;28;20056;-66
2021/10/26 02:16:24;;;;;;;5.22;3.20;;;;;;;16.69;50.08;101481.22;5064805;28;20059;-65
2021/10/26 02:18:52;;;;;;;5.05;3.10;;;;;;;16.69;50.47;101492.19;5066511;28;20045;-66
2021/10/26 02:21:20;;;;;;;5.38;3.08;;;;;;;16.70;50.42;101487.59;5066450;28;20060;-65
2021/10/26 02:23:46;;;;;;;5.28;3.30;;;;;;;16.71;50.68;101486.59;5057267;28;20514;-66
2021/10/26 02:26:14;;;;;;;5.05;2.97;;;;;;;16.69;50.28;101483.97;5068037;28;20090;-66
2021/10/26 02:28:44;;;;;;;4.38;2.80;;;;;;;16.72;50.41;101491.03;5066985;28;20060;-66
2021/10/26 02:31:11;;;;;;;5.82;3.03;;;;;;;16.70;50.25;101493.94;5070966;28;20048;-65
2021/10/26 02:33:38;;;;;;;6.20;3.20;;;;;;;16.70;50.23;101487.59;5066037;28;20132;-65
2021/10/26 02:36:05;;;;;;;4.63;3.28;;;;;;;16.69;50.26;101491.31;5075880;28;20047;-66
2021/10/26 02:38:32;;;;;;;4.90;2.97;;;;;;;16.68;50.21;101484.97;5068595;28;20492;-66
2021/10/26 02:40:59;;;;;;;6.07;3.15;;;;;;;16.69;50.44;101485.84;5065465;28;20099;-65
2021/10/26 02:43:29;;;;;;;6.25;3.20;;;;;;;16.68;50.34;101484.97;5072390;28;20048;-66
2021/10/26 02:45:57;;;;;;;4.88;2.90;;;;;;;16.69;50.19;101485.84;5063831;28;20044;-66
2021/10/26 02:48:24;;;;;;;5.03;2.97;;;;;;;16.67;50.45;101482.34;5050601;28;20563;-66
2021/10/26 02:50:51;;;;;;;6.10;3.20;;;;;;;16.68;50.42;101487.69;5068731;28;20139;-66
2021/10/26 02:53:18;;;;;;;4.32;2.75;;;;;;;16.68;50.36;101484.09;5057982;28;20091;-66
2021/10/26 02:55:44;;;;;;;4.97;3.40;;;;;;;16.67;50.37;101488.69;5058601;28;20140;-66
2021/10/26 02:58:11;;;;;;;5.05;3.22;;;;;;;16.66;50.43;101492.44;5064360;28;20492;-66
2021/10/26 03:00:38;;;;;;;4.70;2.80;;;;;;;16.67;50.57;101490.56;5059672;28;20052;-66
2021/10/26 03:03:05;;;;;;;4.80;3.13;;;;;;;16.67;50.48;101487.81;5067637;28;20120;-66
2021/10/26 03:05:31;;;;;;;5.03;2.85;;;;;;;16.66;50.41;101491.56;5040882;28;20052;-66
2021/10/26 03:07:58;;;;;;;4.43;2.90;;;;;;;16.67;50.71;101494.19;5067014;28;20052;-66
2021/10/26 03:10:25;;;;;;;5.63;3.33;;;;;;;16.67;50.92;101483.22;5060749;28;20086;-66
2021/10/26 03:12:52;;;;;;;5.28;3.50;;;;;;;16.66;50.69;101488.81;5055756;28;20049;-66
2021/10/26 03:15:20;;;;;;;5.93;3.10;;;;;;;16.67;50.70;101488.69;5062283;28;20051;-66
2021/10/26 03:17:46;;;;;;;5.55;3.20;;;;;;;16.67;50.45;101487.81;5060715;28;20048;-66
2021/10/26 03:20:13;;;;;;;7.05;3.53;;;;;;;16.66;50.46;101481.47;5068411;28;20139;-66
2021/10/26 03:22:40;;;;;;;7.97;3.28;;;;;;;16.65;50.33;101476.09;5060666;28;20052;-66
2021/10/26 03:25:08;;;;;;;5.10;3.38;;;;;;;16.66;50.69;101480.59;5073515;28;20075;-66
2021/10/26 03:27:35;;;;;;;6.53;3.45;;;;;;;16.65;50.89;101479.72;5058437;28;20076;-66
2021/10/26 03:30:04;;;;;;;5.90;3.70;;;;;;;16.66;50.85;101486.94;5062337;28;20133;-66
2021/10/26 03:32:31;;;;;;;6.57;3.42;;;;;;;16.65;50.83;101493.44;5060042;28;20068;-66
2021/10/26 03:34:58;;;;;;;6.20;3.10;;;;;;;16.65;51.04;101487.06;5068667;28;20129;-66
2021/10/26 03:37:24;;;;;;;5.15;2.97;;;;;;;16.66;50.46;101486.06;5068862;28;20088;-66
2021/10/26 03:39:55;;;;;;;5.55;3.08;;;;;;;16.65;50.85;101489.81;5060876;28;20106;-66
2021/10/26 03:42:23;;;;;;;4.93;3.10;;;;;;;16.66;50.82;101491.56;5069872;28;20044;-67
2021/10/26 03:44:50;;;;;;;6.10;2.97;;;;;;;16.67;50.84;101496.03;5057917;28;20516;-66
2021/10/26 03:47:19;;;;;;;5.25;3.53;;;;;;;16.66;50.50;101497.03;5067021;28;20079;-66
2021/10/26 03:49:50;;;;;;;4.05;2.72;;;;;;;16.64;50.84;101504.50;5075662;28;20044;-66
2021/10/26 03:52:17;;;;;;;6.13;3.80;;;;;;;16.65;50.96;101504.41;5074032;28;20087;-67
2021/10/26 03:54:43;;;;;;;6.40;3.58;;;;;;;16.66;50.91;101495.16;5039890;28;20594;-67
2021/10/26 03:57:11;;;;;;;6.43;3.40;;;;;;;16.66;50.75;101500.66;5047296;28;20139;-66
2021/10/26 03:59:40;;;;;;;5.28;3.50;;;;;;;16.67;50.89;101507.00;5068188;28;20100;-68
2021/10/26 04:02:12;;;;;;;4.88;3.13;;;;;;;16.65;50.83;101512.63;5054214;28;20044;-66
2021/10/26 04:04:39;;;;;;;5.28;3.40;;;;;;;16.62;50.93;101515.63;5081493;28;20072;-66
2021/10/26 04:07:08;;;;;;;5.82;3.67;;;;;;;16.65;50.69;101517.22;5070175;28;20510;-66
2021/10/26 04:09:51;;;;;;;6.55;3.72;;;;;;;16.65;50.99;101520.84;5074105;28;20090;-66
2021/10/26 04:12:24;;;;;;;6.22;3.38;;;;;;;16.63;50.66;101517.38;5067408;28;20248;-66
2021/10/26 04:14:56;;;;;;;5.30;3.03;;;;;;;16.66;50.81;101522.59;5065447;28;20084;-66
2021/10/26 04:17:26;;;;;;;5.65;3.35;;;;;;;16.64;50.77;101532.81;5072636;28;20114;-66
2021/10/26 04:20:00;;;;;;;9.57;4.70;;;;;;;16.63;50.58;101530.22;5063773;28;20053;-66
2021/10/26 04:22:27;;;;;;;6.15;3.85;;;;;;;16.61;50.86;101533.06;5072617;28;20075;-66
2021/10/26 04:24:54;;;;;;;5.75;3.95;;;;;;;16.63;50.79;101541.19;5065180;28;20071;-66
2021/10/26 04:27:21;;;;;;;6.70;3.72;;;;;;;16.62;51.02;101536.69;5052965;28;20056;-66
2021/10/26 04:29:48;;;;;;;5.80;3.70;;;;;;;16.61;51.05;101535.81;5066396;28;20090;-66
2021/10/26 04:32:17;;;;;;;5.60;3.30;;;;;;;16.61;50.81;101538.56;5074368;28;20470;-66
2021/10/26 04:34:44;;;;;;;6.68;3.70;;;;;;;16.61;50.93;101546.78;5059790;28;20101;-66
2021/10/26 04:37:10;;;;;;;5.85;3.55;;;;;;;16.61;50.83;101551.38;5068650;28;20118;-67
2021/10/26 04:39:42;;;;;;;6.40;3.88;;;;;;;16.62;50.75;101551.28;5064733;28;20049;-67
2021/10/26 04:42:12;;;;;;;6.45;3.63;;;;;;;16.63;51.06;101546.66;5068953;28;20068;-65
2021/10/26 04:44:38;;;;;;;5.88;3.75;;;;;;;16.62;50.98;101553.13;5074644;28;20082;-66
2021/10/26 04:47:05;;;;;;;6.35;3.85;;;;;;;16.62;51.19;101551.28;5051651;28;20045;-66
2021/10/26 04:49:33;;;;;;;6.90;3.90;;;;;;;16.62;51.02;101551.28;5044632;28;20068;-66
2021/10/26 04:52:01;;;;;;;5.45;3.58;;;;;;;16.61;50.95;101554.13;5067586;28;20049;-66
2021/10/26 04:54:29;;;;;;;5.57;3.28;;;;;;;16.61;50.92;101554.13;5065632;28;20053;-67
2021/10/26 04:59:49;;;;;;;5.88;3.67;;;;;;;16.58;51.50;101548.84;5056231;28;20094;-66
2021/10/26 05:02:16;;;;;;;6.32;3.75;;;;;;;16.58;51.35;101546.97;5066696;28;20052;-66
2021/10/26 05:04:43;;;;;;;7.05;3.47;;;;;;;16.59;51.22;101548.72;5070726;28;20072;-66
2021/10/26 05:07:11;;;;;;;7.45;3.90;;;;;;;16.58;51.08;101543.38;5067137;28;20098;-66
2021/10/26 05:09:37;;;;;;;7.13;4.07;;;;;;;16.59;51.19;101553.34;5040382;28;20041;-67
2021/10/26 05:12:04;;;;;;;5.93;3.72;;;;;;;16.59;51.27;101551.47;5066523;28;20114;-67
2021/10/26 05:14:31;;;;;;;6.15;4.07;;;;;;;16.58;50.98;101544.25;5069026;28;20641;-66
2021/10/26 05:16:58;;;;;;;6.13;3.72;;;;;;;16.59;51.38;101553.34;5066279;28;20040;-66
2021/10/26 05:19:26;;;;;;;6.93;3.60;;;;;;;16.59;51.40;101558.81;5066352;28;20052;-67
2021/10/26 05:21:54;;;;;;;6.15;3.80;;;;;;;16.58;51.05;101560.69;5054406;28;20053;-66
2021/10/26 05:24:24;;;;;;;5.28;3.80;;;;;;;16.59;51.20;101553.34;5067835;28;20118;-67
2021/10/26 05:26:52;;;;;;;5.57;3.20;;;;;;;16.60;51.37;101552.34;5072586;28;20100;-66
2021/10/26 05:29:19;;;;;;;6.63;4.00;;;;;;;16.58;51.20;101560.69;5054812;28;20064;-67
2021/10/26 05:31:46;;;;;;;6.47;3.95;;;;;;;16.59;51.27;101565.19;5050380;28;20080;-67
2021/10/26 05:34:14;;;;;;;5.55;3.75;;;;;;;16.59;51.09;101570.66;5067974;28;20075;-67
2021/10/26 05:36:40;;;;;;;6.65;3.75;;;;;;;16.59;51.09;101576.16;5069584;28;20048;-67
2021/10/26 05:39:09;;;;;;;5.93;3.28;;;;;;;16.61;51.26;101565.97;5063835;28;20047;-66
2021/10/26 05:41:37;;;;;;;5.30;3.28;;;;;;;16.59;51.02;101562.44;5071131;28;20130;-66
2021/10/26 05:44:04;;;;;;;5.20;3.50;;;;;;;16.58;51.20;101571.66;5069971;28;20109;-66
2021/10/26 05:46:31;;;;;;;6.85;3.60;;;;;;;16.59;50.96;101569.78;5064069;28;20063;-67
2021/10/26 05:48:59;;;;;;;5.65;3.70;;;;;;;16.59;51.13;101573.41;5065560;28;20040;-67
2021/10/26 05:51:26;;;;;;;5.70;3.28;;;;;;;16.58;51.36;101568.91;5056160;28;20650;-67
2021/10/26 05:53:53;;;;;;;6.13;3.55;;;;;;;16.59;51.21;101573.41;5065564;28;20458;-66
2021/10/26 05:56:19;;;;;;;5.93;3.97;;;;;;;16.60;51.51;101568.81;5040846;28;20053;-68
2021/10/26 05:58:46;;;;;;;8.70;3.40;;;;;;;16.59;51.27;101578.91;5055819;28;20530;-68
2021/10/26 06:01:13;;;;;;;7.75;3.92;;;;;;;16.60;51.79;101574.28;5044415;28;20044;-68
2021/10/26 06:03:40;;;;;;;6.25;3.55;;;;;;;16.60;51.33;101580.66;5059325;28;20070;-68
2021/10/26 06:06:08;;;;;;;6.85;3.80;;;;;;;16.60;51.37;101577.03;5052698;28;20064;-68
2021/10/26 06:08:35;;;;;;;5.90;3.38;;;;;;;16.60;51.57;101583.38;5057981;28;20327;-68
2021/10/26 06:11:07;;;;;;;4.50;3.25;;;;;;;16.61;51.40;101582.44;5055962;28;20114;-67
2021/10/26 06:13:37;;;;;;;6.97;3.53;;;;;;;16.60;51.27;101590.72;5056976;28;20074;-67
2021/10/26 06:16:05;;;;;;;5.72;3.47;;;;;;;16.62;51.33;101595.13;5054425;28;20055;-67
2021/10/26 06:18:32;;;;;;;6.85;3.58;;;;;;;16.63;51.37;101601.50;5061039;28;20040;-68
2021/10/26 06:20:59;;;;;;;5.60;3.38;;;;;;;16.64;51.71;101600.47;5059350;28;20071;-68
2021/10/26 06:23:26;;;;;;;5.25;3.83;;;;;;;16.64;51.33;101609.56;5057604;28;20535;-67
2021/10/26 06:25:59;;;;;;;5.05;3.00;;;;;;;16.65;51.38;101615.94;5048819;28;20080;-67
2021/10/26 06:28:28;;;;;;;6.15;3.40;;;;;;;16.66;51.80;101625.91;5066413;28;20048;-67
2021/10/26 06:30:56;;;;;;;4.90;3.42;;;;;;;16.64;51.37;101628.78;5063548;28;20060;-67
2021/10/26 06:33:22;;;;;;;5.60;3.30;;;;;;;16.64;51.65;101633.38;5063230;28;20044;-67
2021/10/26 06:35:49;;;;;;;7.15;3.08;;;;;;;16.65;51.63;101640.63;5069689;28;20087;-67
2021/10/26 06:38:15;;;;;;;6.22;3.45;;;;;;;16.65;51.57;101633.25;5057341;28;20072;-67
2021/10/26 06:40:42;;;;;;;5.93;3.30;;;;;;;16.65;51.52;101640.63;5062872;28;20048;-67
2021/10/26 06:43:09;;;;;;;6.07;3.28;;;;;;;16.66;51.22;101645.09;5072495;28;20131;-68
2021/10/26 06:45:35;;;;;;;6.72;3.28;;;;;;;16.65;51.67;101649.72;5067794;28;20048;-67
2021/10/26 06:48:02;;;;;;;6.35;3.30;;;;;;;16.66;51.98;101658.81;5062948;28;20044;-67
2021/10/26 06:50:30;;;;;;;5.63;3.00;;;;;;;16.66;51.45;101658.81;5068357;28;20060;-67
2021/10/26 06:52:56;;;;;;;5.95;3.28;;;;;;;16.67;51.18;101658.69;5066679;28;20051;-67
2021/10/26 06:55:24;;;;;;;5.43;3.17;;;;;;;16.67;51.74;101661.44;5075066;28;20047;-67
2021/10/26 06:57:51;;;;;;;5.55;2.97;;;;;;;16.68;51.62;101665.06;5056366;28;20060;-68
2021/10/26 07:00:19;;;;;;;5.88;3.28;;;;;;;16.69;51.51;101670.44;5055973;28;20048;-67
2021/10/26 07:02:47;;;;;;;6.07;3.63;;;;;;;16.69;51.56;101673.16;5063510;28;20049;-67
2021/10/26 07:05:21;;;;;;;5.25;3.10;;;;;;;16.71;51.43;101682.16;5066417;28;20041;-67
2021/10/26 07:07:52;;;;;;;5.10;2.90;;;;;;;16.70;51.73;101682.28;5049575;28;20059;-67
2021/10/26 07:10:19;;;;;;;5.82;3.20;;;;;;;16.71;51.47;101684.91;5038496;28;20068;-66
2021/10/26 07:12:46;;;;;;;5.07;3.05;;;;;;;16.70;51.46;101680.41;5068796;28;20044;-66
2021/10/26 07:15:17;;;;;;;6.75;3.35;;;;;;;16.73;51.82;101679.25;5059237;28;20048;-66
2021/10/26 07:17:45;;;;;;;5.88;3.30;;;;;;;16.70;51.69;101685.00;5065966;28;20087;-67
2021/10/26 07:20:16;;;;;;;5.25;3.13;;;;;;;16.73;52.06;101682.88;5067722;28;20049;-66
2021/10/26 07:22:55;;;;;;;5.95;3.13;;;;;;;16.73;51.81;101682.88;5064081;28;20116;-67
2021/10/26 07:25:25;;;;;;;5.38;2.95;;;;;;;16.73;51.35;101687.50;5064173;28;20120;-67
2021/10/26 07:27:56;;;;;;;5.15;2.70;;;;;;;16.73;51.67;101688.38;5060298;28;20076;-67
2021/10/26 07:30:25;;;;;;;5.45;3.17;;;;;;;16.74;51.63;101686.50;5062236;28;20094;-66
2021/10/26 07:32:51;;;;;;;6.00;2.70;;;;;;;16.74;51.30;101687.38;5051348;28;20088;-66
2021/10/26 07:35:18;;;;;;;5.50;2.72;;;;;;;16.76;51.36;101694.59;5068724;28;20083;-67
2021/10/26 07:37:48;;;;;;;4.85;2.78;;;;;;;16.75;51.34;101691.00;5065310;28;20063;-66
2021/10/26 07:40:16;;;;;;;7.15;3.28;;;;;;;16.78;51.74;101696.25;5041549;28;20098;-67
2021/10/26 07:42:48;;;;;;;5.47;3.20;;;;;;;16.77;51.57;101690.88;5063525;28;20083;-67
2021/10/26 07:45:14;;;;;;;5.38;2.83;;;;;;;16.77;51.51;101694.50;5069903;28;20146;-67
2021/10/26 07:47:41;;;;;;;7.32;3.83;;;;;;;16.78;51.78;101701.72;5064134;28;20487;-66
2021/10/26 07:50:09;;;;;;;6.22;3.30;;;;;;;16.78;51.49;101698.97;5027978;28;20467;-66
2021/10/26 07:52:38;;;;;;;4.53;2.78;;;;;;;16.80;51.96;101713.44;5060710;28;20072;-66
2021/10/26 07:55:05;;;;;;;6.22;2.88;;;;;;;16.80;51.67;101705.19;5068116;28;20045;-66
2021/10/26 07:57:32;;;;;;;5.70;2.90;;;;;;;16.83;51.69;101712.31;5063664;28;20067;-66
2021/10/26 07:59:59;;;;;;;6.45;3.40;;;;;;;16.83;51.62;101715.06;5060477;28;20052;-66
2021/10/26 08:02:26;;;;;;;5.82;3.25;;;;;;;16.83;52.04;101709.56;5064051;28;20052;-67
2021/10/26 08:04:55;;;;;;;5.40;3.20;;;;;;;16.88;51.86;101718.34;5051277;28;20052;-67
2021/10/26 08:07:23;;;;;;;5.47;3.38;;;;;;;16.88;51.49;101712.84;5064220;28;20118;-66
2021/10/26 08:09:52;;;;;;;5.80;3.10;;;;;;;16.90;51.40;101717.19;5060973;28;20048;-66
2021/10/26 08:12:20;;;;;;;5.72;2.75;;;;;;;16.90;51.70;101717.19;5063314;28;20458;-66
2021/10/26 08:14:58;;;;;;;5.60;3.05;;;;;;;16.93;52.02;101722.44;5066127;28;20059;-66
2021/10/26 08:17:25;;;;;;;5.15;2.60;;;;;;;16.94;51.74;101726.94;5064948;28;20052;-65
2021/10/26 08:19:53;;;;;;;4.72;2.65;;;;;;;16.99;51.94;101726.56;5021482;28;20416;-65
2021/10/26 08:22:22;;;;;;;4.93;2.90;;;;;;;17.01;51.79;101721.84;5064766;28;20071;-66
2021/10/26 08:24:54;;;;;;;5.07;2.70;;;;;;;17.05;51.68;101737.03;5048706;28;20052;-66
2021/10/26 08:27:21;;;;;;;8.37;2.80;;;;;;;17.01;51.75;101736.44;5059970;28;20087;-66
2021/10/26 08:29:59;;;;;;;4.95;2.88;;;;;;;17.04;51.74;101741.69;5057760;28;20421;-66
2021/10/26 08:37:52;;;;;;;3.88;2.50;;;;;;;17.07;52.08;101733.19;5061327;28;20479;-65
2021/10/26 08:40:25;;;;;;;4.78;2.38;;;;;;;17.10;52.29;101735.69;5062736;28;20084;-66
2021/10/26 08:42:54;;;;;;;4.70;2.72;;;;;;;17.09;51.81;101727.56;5066507;28;20056;-67
2021/10/26 08:45:22;;;;;;;5.53;3.00;;;;;;;17.10;52.25;101724.72;5048053;28;20075;-66
2021/10/26 08:47:49;;;;;;;4.25;2.47;;;;;;;17.10;51.64;101727.47;5063968;28;20049;-67
2021/10/26 08:50:20;;;;;;;5.65;2.80;;;;;;;17.16;51.78;101733.44;5072192;28;20110;-66
2021/10/26 08:52:49;;;;;;;6.68;2.70;;;;;;;17.15;51.60;101735.31;5072074;28;20044;-66
2021/10/26 08:55:18;;;;;;;3.75;1.95;;;;;;;17.15;52.04;101728.94;5068626;28;20048;-66
2021/10/26 08:57:46;;;;;;;5.00;2.30;;;;;;;17.16;51.58;101726.09;5064650;28;20049;-67
2021/10/26 09:00:23;;;;;;;6.25;2.15;;;;;;;17.18;51.86;101728.72;5064321;28;20060;-66
2021/10/26 09:02:52;;;;;;;6.68;2.28;;;;;;;17.19;51.75;101733.19;5049504;28;20056;-66
2021/10/26 09:05:24;;;;;;;5.28;2.38;;;;;;;17.23;51.82;101734.69;5067950;28;20051;-67
2021/10/26 09:08:07;;;;;;;5.65;2.28;;;;;;;17.23;52.07;101737.44;5059421;28;20760;-67
2021/10/26 09:10:38;;;;;;;5.55;1.90;;;;;;;17.21;51.76;101732.09;5059082;28;20072;-67
2021/10/26 09:18:50;;;;;;;4.13;2.00;;;;;;;17.25;52.24;101722.59;5066173;28;20462;-67
2021/10/26 09:21:30;;;;;;;4.50;1.88;;;;;;;17.30;52.04;101727.69;5050401;28;20041;-67
2021/10/26 09:24:00;;;;;;;4.93;2.10;;;;;;;17.29;52.18;101736.97;5069793;28;20106;-67
2021/10/26 09:26:48;;;;;;;5.00;1.85;;;;;;;17.33;52.09;101732.94;5071510;28;20087;-67
2021/10/26 09:29:18;;;;;;;4.93;1.70;;;;;;;17.32;51.82;101731.19;5066324;28;20477;-67
2021/10/26 09:31:47;;;;;;;4.80;1.95;;;;;;;17.35;51.67;101731.84;5072720;28;20048;-66
2021/10/26 09:34:18;;;;;;;4.45;1.67;;;;;;;17.38;51.62;101727.94;5060227;28;20106;-67
2021/10/26 09:36:48;;;;;;;5.00;1.80;;;;;;;17.39;51.58;101721.47;5053861;28;20063;-66
2021/10/26 09:39:20;;;;;;;3.50;1.60;;;;;;;17.41;52.02;101719.47;5063088;28;20055;-67
2021/10/26 09:41:50;;;;;;;4.43;1.45;;;;;;;17.41;51.77;101717.59;5053466;28;20091;-67
2021/10/26 09:44:19;;;;;;;4.15;1.70;;;;;;;17.44;51.66;101721.97;5038366;28;20076;-66
2021/10/26 09:46:53;;;;;;;5.85;2.42;;;;;;;17.49;51.63;101723.34;5055307;28;20110;-67
2021/10/26 09:49:33;;;;;;;4.72;2.20;;;;;;;17.50;51.94;101715.97;5062013;28;20392;-67
2021/10/26 09:52:18;;;;;;;5.25;2.42;;;;;;;17.51;52.09;101723.22;5052374;28;20044;-67
2021/10/26 09:54:48;;;;;;;3.58;2.35;;;;;;;17.55;51.73;101729.31;5064432;28;20049;-67
2021/10/26 09:57:17;;;;;;;4.13;1.98;;;;;;;17.56;51.79;101718.22;5063664;28;20049;-69
2021/10/26 09:59:49;;;;;;;4.60;1.92;;;;;;;17.59;51.90;101720.72;5061394;28;20054;-68
2021/10/26 10:02:24;;;;;;;3.55;2.00;;;;;;;17.61;51.73;101721.47;5062798;28;20072;-66
2021/10/26 10:05:02;;;;;;;;;;;;;;;17.37;51.97;101728.97;5068392;28;20042;-67
2021/10/26 10:07:42;;;;;;;5.40;2.10;;;;;;;17.64;51.74;101731.34;5066381;28;20287;-66
2021/10/26 10:10:11;;;;;;;4.63;2.03;;;;;;;17.67;51.64;101731.97;5049952;28;20044;-66
2021/10/26 10:12:38;;;;;;;7.63;2.05;;;;;;;17.71;51.74;101732.56;5059343;28;20051;-67
2021/10/26 10:15:07;;;;;;;5.40;1.88;;;;;;;17.73;51.71;101725.97;5063509;28;20426;-67
2021/10/26 10:17:37;;;;;;;4.32;2.05;;;;;;;17.75;51.70;101728.59;5056286;28;20056;-67
2021/10/26 10:20:12;;;;;;;3.63;2.05;;;;;;;17.76;51.33;101733.97;5055482;28;20053;-67
2021/10/26 10:22:45;;;;;;;4.32;1.80;;;;;;;17.78;51.51;101736.59;5066406;28;20048;-67
2021/10/26 10:25:14;;;;;;;3.47;1.55;;;;;;;17.79;51.58;101739.19;5065976;28;20044;-67
2021/10/26 10:27:47;;;;;;;4.63;2.05;;;;;;;17.82;51.53;101736.19;5059442;28;20766;-67
2021/10/26 10:30:14;;;;;;;5.28;1.67;;;;;;;17.87;51.71;101741.31;5044772;28;20060;-67
2021/10/26 10:32:41;;;;;;;4.03;1.80;;;;;;;17.91;51.79;101731.78;5060521;28;20070;-67
2021/10/26 10:35:16;;;;;;;4.15;1.70;;;;;;;17.95;51.32;101730.56;5069736;28;20045;-67
2021/10/26 10:37:48;;;;;;;3.85;1.85;;;;;;;17.98;50.86;101730.28;5067398;28;20048;-67
2021/10/26 10:40:23;;;;;;;5.47;2.00;;;;;;;18.02;50.95;101728.16;5062134;28;20059;-67
2021/10/26 10:42:52;;;;;;;3.85;1.55;;;;;;;18.02;50.90;101723.53;5057156;28;20373;-66
2021/10/26 10:45:34;;;;;;;3.97;1.73;;;;;;;18.09;50.93;101734.88;5033709;28;20526;-67
2021/10/26 10:48:24;;;;;;;4.65;1.85;;;;;;;18.08;50.76;101731.25;5067551;28;20041;-67
2021/10/26 10:51:11;;;;;;;3.05;1.60;;;;;;;18.13;50.74;101734.47;5067749;28;20052;-67
2021/10/26 10:53:40;;;;;;;4.05;1.75;;;;;;;18.18;50.97;101740.47;5072557;28;20811;-67
2021/10/26 10:56:24;;;;;;;5.50;1.60;;;;;;;18.23;50.57;101729.94;5064206;28;20110;-67
2021/10/26 10:58:53;;;;;;;4.45;1.65;;;;;;;18.24;51.01;101734.44;5052855;28;20049;-67
2021/10/26 11:01:31;;;;;;;4.00;1.73;;;;;;;18.30;50.95;101730.28;5069682;28;20048;-67
2021/10/26 11:04:35;;;;;;;2.60;1.38;;;;;;;18.30;50.88;101735.78;5067140;28;20055;-67
2021/10/26 11:07:07;;;;;;;4.03;1.65;;;;;;;18.39;50.96;101736.88;5061559;28;20110;-67
2021/10/26 11:09:38;;;;;;;4.38;1.67;;;;;;;18.46;51.12;101727.97;5061440;28;20560;-68
2021/10/26 11:12:27;;;;;;;4.05;1.80;;;;;;;18.56;50.42;101728.97;5061808;28;20048;-66
2021/10/26 11:15:19;;;;;;;3.70;1.63;;;;;;;18.57;50.78;101725.22;5081673;28;20417;-67
2021/10/26 11:17:49;;;;;;;3.25;1.50;;;;;;;18.63;50.58;101724.66;5056820;28;20102;-67
2021/10/26 11:20:28;;;;;;;3.00;1.42;;;;;;;18.71;49.91;101728.63;5067446;28;20083;-67
2021/10/26 11:23:02;;;;;;;3.35;1.58;;;;;;;18.69;50.08;101726.03;5062548;28;20055;-68
2021/10/26 11:25:34;;;;;;;4.90;1.55;;;;;;;18.76;50.07;101735.50;5080429;28;20048;-67
2021/10/26 11:28:13;;;;;;;3.40;1.70;;;;;;;18.82;49.28;101723.94;5050920;28;20048;-67
2021/10/26 11:30:47;;;;;;;3.53;1.80;;;;;;;18.82;49.51;101721.19;5051019;28;20100;-67
2021/10/26 11:33:13;;;;;;;2.25;1.35;;;;;;;18.79;49.45;101715.94;5067974;28;20118;-67
2021/10/26 11:35:49;;;;;;;3.28;1.42;;;;;;;18.86;49.25;101717.16;5068553;28;20044;-66
2021/10/26 11:38:18;;;;;;;3.47;1.63;;;;;;;18.86;49.13;101728.16;5063105;28;20067;-68
2021/10/26 11:41:01;;;;;;;3.53;1.63;;;;;;;18.88;48.94;101726.16;5065781;28;20059;-66
2021/10/26 11:43:46;;;;;;;4.90;1.80;;;;;;;18.84;48.86;101724.69;5059904;28;20132;-67
2021/10/26 11:46:17;;;;;;;5.05;1.77;;;;;;;18.89;49.16;101724.28;5082190;28;20075;-67
2021/10/26 11:48:46;;;;;;;4.43;2.00;;;;;;;18.88;49.14;101728.91;5057171;28;20210;-67